Time;durP1;ratioP1;P1;durP2;ratioP2;P2;SDS_P1;SDS_P2;PMS_P1;PMS_P2;Temp;Humidity;BMP_temperature;BMP_pressure;BME280_temperature;BME280_humidity;BME280_pressure;Samples;Min_cycle;Max_cycle;Signal;HPM_P1;HPM_P2
2022/01/25 00:10:13;;;;;;;;;100.00;87.75;;;;;5.56;61.37;102747.53;5038321;28;45541;-80
2022/01/25 00:26:21;;;;;;;;;91.25;72.25;;;;;5.38;61.92;102739.03;5056650;28;45390;-80
2022/01/25 00:31:28;;;;;;;;;74.25;60.25;;;;;5.34;61.24;102746.56;5056633;28;45612;-78
2022/01/25 00:33:54;;;;;;;;;81.75;61.00;;;;;5.40;61.72;102759.66;5055245;28;46348;-77
2022/01/25 00:36:23;;;;;;;;;76.25;56.00;;;;;5.40;61.67;102756.09;5057698;28;45387;-77
2022/01/25 00:38:49;;;;;;;;;74.25;59.25;;;;;5.36;61.44;102751.88;5059184;28;45357;-78
2022/01/25 00:41:16;;;;;;;;;80.75;59.75;;;;;5.31;61.90;102749.53;5058649;28;45653;-78
2022/01/25 00:43:42;;;;;;;;;76.75;57.50;;;;;5.30;61.85;102748.69;5059535;28;45825;-78
2022/01/25 00:46:11;;;;;;;;;78.75;60.25;;;;;5.30;62.34;102758.72;5060859;28;46072;-78
2022/01/25 00:53:55;;;;;;;;;73.25;55.25;;;;;5.37;61.88;102749.03;5057488;28;45519;-79
2022/01/25 00:56:21;;;;;;;;;75.00;55.25;;;;;5.39;62.33;102752.50;5039786;28;46766;-78
2022/01/25 00:58:46;;;;;;;;;74.00;56.75;;;;;5.40;61.85;102754.22;5039111;28;45555;-79
2022/01/25 01:01:12;;;;;;;;;71.50;56.00;;;;;5.41;61.83;102747.81;5040214;28;45375;-79
2022/01/25 01:03:38;;;;;;;;;70.25;54.75;;;;;5.43;62.12;102747.69;5040361;28;45428;-79
2022/01/25 01:06:05;;;;;;;;;71.75;55.25;;;;;5.44;61.98;102749.41;5038780;28;46169;-77
2022/01/25 01:08:31;;;;;;;;;72.25;54.50;;;;;5.46;62.13;102751.03;5054275;28;45493;-77
2022/01/25 01:10:59;;;;;;;;;72.75;55.75;;;;;5.46;62.27;102744.69;5037797;28;45424;-77
2022/01/25 01:16:05;;;;;;;;;74.25;55.50;;;;;5.45;62.02;102743.84;5071670;28;45350;-78
2022/01/25 01:32:59;;;;;;;;;84.25;61.75;;;;;5.39;61.32;102757.06;5029496;28;45364;-77
2022/01/25 01:35:31;;;;;;;;;79.25;60.50;;;;;5.37;61.80;102756.34;5056459;28;45325;-78
2022/01/25 01:41:06;;;;;;;;;85.50;70.50;;;;;5.32;61.81;102767.59;5078011;28;45782;-76
2022/01/25 01:43:33;;;;;;;;;90.00;70.25;;;;;5.30;61.55;102754.13;5077876;28;45320;-78
2022/01/25 01:48:59;;;;;;;;;83.50;64.00;;;;;5.28;61.73;102760.66;5077987;28;45426;-77
2022/01/25 01:51:29;;;;;;;;;84.50;63.25;;;;;5.26;60.89;102765.38;5078392;28;45637;-75
2022/01/25 01:53:57;;;;;;;;;80.25;59.50;;;;;5.24;61.37;102765.50;5059687;28;45797;-77
2022/01/25 01:56:23;;;;;;;;;84.25;66.00;;;;;5.25;61.46;102769.09;5078341;28;45429;-77
2022/01/25 01:58:55;;;;;;;;;81.75;62.75;;;;;5.27;61.53;102769.84;5077607;28;45349;-77
2022/01/25 02:01:21;;;;;;;;;85.50;61.25;;;;;5.31;61.39;102771.31;5078512;28;45800;-78
2022/01/25 02:03:47;;;;;;;;;82.75;66.50;;;;;5.31;61.39;102776.75;5078728;28;45478;-77
2022/01/25 02:06:13;;;;;;;;;82.75;67.75;;;;;5.33;60.77;102766.63;5079321;28;45478;-77
2022/01/25 02:08:39;;;;;;;;;84.00;64.25;;;;;5.35;61.07;102770.06;5061059;28;46477;-77
2022/01/25 02:11:05;;;;;;;;;75.25;55.75;;;;;5.37;60.41;102770.81;5079213;28;45509;-77
2022/01/25 02:13:32;;;;;;;;;82.50;60.50;;;;;5.35;60.57;102761.91;5078665;28;45509;-77
2022/01/25 02:16:01;;;;;;;;;81.25;61.25;;;;;5.32;60.77;102759.44;5078546;28;45538;-78
2022/01/25 02:23:55;;;;;;;;;80.50;67.00;;;;;5.34;59.79;102770.19;5082798;28;45508;-78
2022/01/25 02:26:20;;;;;;;;;80.25;64.25;;;;;5.32;59.66;102762.16;5080544;28;45496;-76
2022/01/25 02:28:46;;;;;;;;;82.25;64.50;;;;;5.29;60.23;102765.97;5079074;28;45397;-79
2022/01/25 02:31:14;;;;;;;;;83.00;63.75;;;;;5.25;59.66;102759.06;5079220;28;45386;-78
2022/01/25 02:33:40;;;;;;;;;78.75;60.00;;;;;5.24;59.85;102764.63;5078621;28;45514;-79
2022/01/25 02:36:13;;;;;;;;;80.00;59.75;;;;;5.24;60.33;102770.06;5078497;28;45469;-78
2022/01/25 02:38:39;;;;;;;;;79.25;62.75;;;;;5.22;59.65;102770.19;5060097;28;47517;-77
2022/01/25 02:41:05;;;;;;;;;79.75;61.50;;;;;5.24;59.21;102775.50;5078639;28;45737;-77
2022/01/25 02:43:34;;;;;;;;;78.25;59.75;;;;;5.25;59.62;102772.66;5060568;28;45486;-77
2022/01/25 02:46:19;;;;;;;;;74.50;59.25;;;;;5.25;59.23;102772.66;5040155;28;46523;-77
2022/01/25 02:48:55;;;;;;;;;76.50;57.25;;;;;5.24;59.30;102778.22;5061922;28;47012;-77
2022/01/25 02:51:27;;;;;;;;;78.00;59.00;;;;;5.21;58.74;102762.16;5077211;28;45457;-77
2022/01/25 02:53:54;;;;;;;;;77.75;59.50;;;;;5.20;59.17;102766.72;5077624;28;45321;-77
2022/01/25 02:56:20;;;;;;;;;75.25;58.50;;;;;5.19;59.82;102758.69;5059878;28;45946;-78
2022/01/25 02:58:46;;;;;;;;;73.50;55.50;;;;;5.13;58.87;102755.50;5077747;28;45622;-76
2022/01/25 03:01:13;;;;;;;;;71.25;55.00;;;;;5.16;58.78;102764.38;5080311;28;45521;-78
2022/01/25 03:03:38;;;;;;;;;75.50;57.50;;;;;5.16;59.14;102769.81;5078528;28;45457;-76
2022/01/25 03:06:07;;;;;;;;;66.75;52.75;;;;;5.16;59.70;102770.69;5079663;28;45429;-79
2022/01/25 03:08:36;;;;;;;;;65.25;52.50;;;;;5.15;59.34;102770.81;5081047;28;46473;-81
2022/01/25 03:11:02;;;;;;;;;75.75;54.75;;;;;5.13;59.68;102768.22;5061211;28;45900;-77
2022/01/25 03:13:33;;;;;;;;;67.50;52.50;;;;;5.16;59.15;102761.66;5058959;28;45753;-77
2022/01/25 03:16:06;;;;;;;;;69.50;53.50;;;;;5.15;58.91;102760.81;5080339;28;45892;-79
2022/01/25 03:21:20;;;;;;;;;70.00;56.00;;;;;5.10;59.51;102760.31;5078406;28;45513;-78
2022/01/25 03:23:46;;;;;;;;;70.00;52.50;;;;;5.08;58.77;102760.41;5079711;28;45515;-77
2022/01/25 03:26:12;;;;;;;;;70.00;55.00;;;;;5.09;59.07;102751.28;5060989;28;45860;-78
2022/01/25 03:28:37;;;;;;;;;73.75;56.25;;;;;5.08;59.16;102760.41;5060036;28;47911;-77
2022/01/25 03:31:03;;;;;;;;;70.50;54.00;;;;;5.05;58.81;102749.78;5078995;28;45478;-78
2022/01/25 03:33:29;;;;;;;;;72.75;54.50;;;;;5.04;58.67;102737.19;5081277;28;45434;-77
2022/01/25 03:35:55;;;;;;;;;70.75;53.00;;;;;5.05;59.57;102733.47;5060820;28;45546;-77
2022/01/25 03:38:20;;;;;;;;;70.25;54.75;;;;;5.08;58.76;102738.66;5060825;28;46860;-79
2022/01/25 03:40:46;;;;;;;;;69.50;53.25;;;;;5.08;58.56;102740.53;5079922;28;45329;-77
2022/01/25 03:43:14;;;;;;;;;65.25;51.25;;;;;5.05;59.77;102740.78;5059395;28;45430;-78
2022/01/25 03:45:58;;;;;;;;;68.25;53.75;;;;;5.09;58.87;102745.84;5078758;28;45470;-77
2022/01/25 03:50:51;;;;;;;;;70.25;51.75;;;;;5.23;59.47;102741.16;5080889;28;45820;-77
2022/01/25 03:53:20;;;;;;;;;65.75;50.50;;;;;5.29;58.69;102741.50;5080232;28;45448;-78
2022/01/25 03:55:47;;;;;;;;;65.50;53.00;;;;;5.36;59.20;102750.03;5080563;28;45437;-77
2022/01/25 03:58:13;;;;;;;;;73.00;56.00;;;;;5.43;58.82;102754.00;5079531;28;45389;-78
2022/01/25 04:00:40;;;;;;;;;66.50;51.50;;;;;5.53;58.33;102745.94;5081063;28;45354;-77
2022/01/25 04:03:13;;;;;;;;;63.00;48.75;;;;;5.64;58.66;102745.03;5061495;28;45442;-77
2022/01/25 04:08:08;;;;;;;;;60.75;49.00;;;;;5.81;58.21;102752.69;5080101;28;45553;-78
2022/01/25 04:10:34;;;;;;;;;66.00;49.75;;;;;5.87;57.72;102750.44;5060252;28;45427;-79
2022/01/25 04:13:00;;;;;;;;;65.50;47.75;;;;;5.96;58.08;102744.22;5077661;28;45431;-79
2022/01/25 04:15:26;;;;;;;;;58.50;45.75;;;;;6.03;56.97;102755.50;5079483;28;45584;-77
2022/01/25 04:18:03;;;;;;;;;69.25;52.75;;;;;6.07;57.66;102749.66;5077810;28;46436;-78
2022/01/25 04:20:34;;;;;;;;;66.50;50.75;;;;;6.15;56.96;102752.59;5059960;28;45378;-78
2022/01/25 04:25:44;;;;;;;;;63.25;48.25;;;;;6.25;56.16;102760.84;5078609;28;45489;-77
2022/01/25 04:28:09;;;;;;;;;60.00;48.75;;;;;6.30;56.80;102757.72;5079790;28;45378;-78
2022/01/25 04:30:35;;;;;;;;;62.75;48.25;;;;;6.36;56.84;102751.75;5077651;28;45410;-78
2022/01/25 04:33:16;;;;;;;;;64.25;49.25;;;;;6.37;56.83;102745.31;5078920;28;45502;-77
2022/01/25 04:36:23;;;;;;;;;59.75;49.25;;;;;6.35;55.95;102739.13;5078474;28;45507;-79
2022/01/25 04:49:31;;;;;;;;;65.25;51.25;;;;;6.51;56.30;102766.81;5077441;28;45764;-77
2022/01/25 04:52:07;;;;;;;;;66.50;51.25;;;;;6.37;56.03;102742.59;5078517;28;45369;-80
2022/01/25 05:00:09;;;;;;;;;64.00;47.75;;;;;6.64;56.37;102771.19;5074560;28;45741;-77
2022/01/25 05:05:11;;;;;;;;;60.75;46.75;;;;;6.62;55.80;102767.75;5077939;28;45522;-78
2022/01/25 05:08:01;;;;;;;;;63.00;48.00;;;;;6.64;56.36;102763.00;5056323;28;45861;-77
2022/01/25 05:10:29;;;;;;;;;67.25;51.00;;;;;6.68;56.31;102767.22;5074958;28;45567;-79
2022/01/25 05:13:43;;;;;;;;;20.25;6.75;;;;;6.75;56.98;102765.69;5076226;28;45297;-78
2022/01/25 05:16:07;;;;;;;;;69.50;50.50;;;;;6.82;56.79;102763.28;5073645;27;45547;-78
2022/01/25 05:19:03;;;;;;;;;64.75;51.00;;;;;6.85;56.55;102782.94;5078160;28;45453;-77
2022/01/25 05:24:08;;;;;;;;;65.25;49.50;;;;;6.87;56.73;102778.25;5076539;28;45769;-77
2022/01/25 05:26:34;;;;;;;;;64.75;49.00;;;;;6.83;55.32;102774.03;5079353;28;45502;-79
2022/01/25 05:29:02;;;;;;;;;67.50;49.00;;;;;6.78;55.61;102768.13;5078065;28;45448;-80
2022/01/25 05:31:28;;;;;;;;;63.25;49.00;;;;;6.74;55.75;102768.50;5078596;28;45560;-79
2022/01/25 05:33:54;;;;;;;;;56.25;46.75;;;;;6.70;56.00;102763.31;5059377;28;45992;-80
2022/01/25 05:36:20;;;;;;;;;64.25;47.00;;;;;6.65;55.51;102768.31;5058019;28;45372;-79
2022/01/25 05:38:46;;;;;;;;;65.00;48.00;;;;;6.67;56.46;102779.09;5061230;28;45942;-78
2022/01/25 05:41:13;;;;;;;;;59.25;45.25;;;;;6.66;55.74;102780.09;5071258;28;45565;-79
2022/01/25 05:44:08;;;;;;;;;61.00;47.75;;;;;6.67;55.61;102779.09;5079951;28;45481;-79
2022/01/25 05:46:43;;;;;;;;;61.00;46.75;;;;;6.62;56.42;102771.31;5063914;28;45609;-78
2022/01/25 05:49:08;;;;;;;;;70.50;51.25;;;;;6.64;55.99;102773.91;5074232;28;45781;-78
2022/01/25 05:51:38;;;;;;;;;68.75;50.00;;;;;6.51;56.22;102755.00;5075573;28;46537;-78
2022/01/25 05:54:07;;;;;;;;;63.00;49.50;;;;;6.54;56.73;102772.00;5079299;28;45465;-78
2022/01/25 05:56:33;;;;;;;;;68.25;52.50;;;;;6.50;56.69;102764.22;5057214;28;45387;-77
2022/01/25 05:58:58;;;;;;;;;63.75;50.75;;;;;6.59;56.97;102784.38;5075594;28;45410;-77
2022/01/25 06:01:24;;;;;;;;;69.00;51.25;;;;;6.62;56.71;102774.03;5071737;28;45403;-76
2022/01/25 06:03:49;;;;;;;;;63.00;48.50;;;;;6.61;56.68;102771.47;5070704;28;45733;-77
2022/01/25 06:06:14;;;;;;;;;69.50;52.25;;;;;6.56;57.28;102784.59;5065850;28;45727;-77
2022/01/25 06:08:40;;;;;;;;;67.75;50.50;;;;;6.53;57.37;102769.41;5074297;28;45717;-78
2022/01/25 06:11:07;;;;;;;;;63.25;48.75;;;;;6.53;57.66;102780.31;5095115;27;45483;-78
2022/01/25 06:13:35;;;;;;;;;64.25;49.00;;;;;6.57;57.52;102776.28;5094581;27;45855;-78
2022/01/25 06:16:11;;;;;;;;;62.75;49.00;;;;;6.53;57.52;102775.69;5061799;28;45370;-79
2022/01/25 06:18:37;;;;;;;;;63.00;47.50;;;;;6.58;57.15;102772.56;5078121;28;47472;-76
2022/01/25 06:21:02;;;;;;;;;63.50;47.50;;;;;6.63;56.58;102774.91;5077645;28;45453;-79
2022/01/25 06:23:28;;;;;;;;;67.00;49.75;;;;;6.62;56.33;102778.66;5073873;28;45773;-78
2022/01/25 06:25:53;;;;;;;;;58.75;45.25;;;;;6.61;56.44;102771.47;5057985;28;45421;-79
2022/01/25 06:28:19;;;;;;;;;57.00;46.25;;;;;6.53;56.82;102774.84;5077598;28;45773;-80
2022/01/25 06:30:45;;;;;;;;;63.25;48.75;;;;;6.51;56.74;102780.44;5074551;28;46493;-75
2022/01/25 06:33:11;;;;;;;;;64.00;48.75;;;;;6.52;56.61;102773.97;5072436;28;45484;-76
2022/01/25 06:35:37;;;;;;;;;58.25;44.50;;;;;6.47;57.10;102775.38;5070582;28;45677;-77
2022/01/25 06:38:11;;;;;;;;;68.00;47.50;;;;;6.45;56.44;102774.63;5066704;28;45528;-75
2022/01/25 06:40:37;;;;;;;;;58.25;45.25;;;;;6.42;57.29;102767.59;5055406;28;48402;-76
2022/01/25 06:43:02;;;;;;;;;65.50;49.50;;;;;6.42;57.07;102767.59;5069855;28;45414;-76
2022/01/25 06:45:28;;;;;;;;;58.50;45.50;;;;;6.44;57.33;102767.47;5090429;27;45422;-75
2022/01/25 06:47:53;;;;;;;;;54.00;41.75;;;;;6.52;55.89;102770.38;5075184;28;45791;-75
2022/01/25 06:50:23;;;;;;;;;61.50;47.25;;;;;6.59;56.11;102773.47;5073222;28;47558;-74
2022/01/25 06:52:49;;;;;;;;;59.75;44.25;;;;;6.64;56.05;102771.19;5073600;28;45438;-75
2022/01/25 06:55:17;;;;;;;;;56.50;44.00;;;;;6.65;55.61;102779.22;5073729;28;45663;-76
2022/01/25 06:57:44;;;;;;;;;60.00;45.75;;;;;6.65;55.64;102775.66;5072992;28;45574;-74
2022/01/25 07:00:13;;;;;;;;;58.50;46.00;;;;;6.70;55.38;102778.84;5073863;28;46220;-75
2022/01/25 07:02:39;;;;;;;;;60.25;42.75;;;;;6.62;54.37;102768.59;5075833;28;45485;-76
2022/01/25 07:05:05;;;;;;;;;53.75;43.00;;;;;6.60;55.69;102780.63;5053878;28;45787;-74
2022/01/25 07:07:30;;;;;;;;;59.75;44.00;;;;;6.59;56.52;102782.50;5055704;28;46610;-78
2022/01/25 07:09:56;;;;;;;;;62.75;43.25;;;;;6.67;55.47;102788.13;5074834;28;46776;-78
2022/01/25 07:12:22;;;;;;;;;57.25;44.00;;;;;6.73;55.52;102778.56;5073665;28;45773;-75
2022/01/25 07:14:48;;;;;;;;;55.25;44.50;;;;;6.75;54.52;102779.31;5076043;28;45446;-75
2022/01/25 07:17:13;;;;;;;;;55.50;43.00;;;;;6.72;54.50;102782.28;5072270;28;45775;-73
2022/01/25 07:19:39;;;;;;;;;65.75;46.25;;;;;6.70;54.53;102776.09;5056865;28;47396;-74
2022/01/25 07:22:04;;;;;;;;;52.75;44.00;;;;;6.68;54.35;102781.69;5073750;28;45508;-75
2022/01/25 07:24:30;;;;;;;;;54.75;41.25;;;;;6.65;54.61;102781.97;5074027;28;45359;-74
2022/01/25 07:26:56;;;;;;;;;59.25;46.50;;;;;6.63;54.76;102774.91;5074858;28;45495;-76
2022/01/25 07:29:21;;;;;;;;;60.00;46.00;;;;;6.69;54.68;102780.72;5054862;28;46094;-74
2022/01/25 07:31:47;;;;;;;;;55.00;44.00;;;;;6.73;54.70;102786.75;5073453;28;45427;-77
2022/01/25 07:34:13;;;;;;;;;57.00;42.25;;;;;6.78;54.58;102798.13;5075455;28;45792;-76
2022/01/25 07:36:41;;;;;;;;;56.50;44.00;;;;;6.74;55.35;102798.50;5076950;28;45637;-74
2022/01/25 07:39:06;;;;;;;;;60.00;43.75;;;;;6.69;54.94;102801.63;5054531;28;45882;-72
2022/01/25 07:41:32;;;;;;;;;54.50;42.25;;;;;6.67;54.45;102801.75;5053281;28;45730;-72
2022/01/25 07:43:59;;;;;;;;;55.00;43.25;;;;;6.68;55.16;102800.78;5034539;28;45450;-74
2022/01/25 07:46:25;;;;;;;;;54.75;42.75;;;;;6.69;54.94;102801.63;5035716;28;45787;-75
2022/01/25 07:49:02;;;;;;;;;61.25;45.75;;;;;6.75;54.66;102811.16;5052391;28;45716;-81
2022/01/25 07:51:31;;;;;;;;;56.50;40.00;;;;;6.76;54.36;102805.56;5038741;28;45621;-75
2022/01/25 07:53:59;;;;;;;;;58.75;44.00;;;;;6.75;54.76;102814.75;5053984;28;45803;-75
2022/01/25 07:56:26;;;;;;;;;56.00;46.00;;;;;6.68;54.28;102800.78;5052558;28;45521;-75
2022/01/25 07:58:52;;;;;;;;;58.00;43.50;;;;;6.83;54.61;102814.09;5036190;28;48016;-74
2022/01/25 08:01:19;;;;;;;;;57.00;44.50;;;;;6.86;54.84;102820.13;5054595;28;45528;-74
2022/01/25 08:03:44;;;;;;;;;58.50;43.00;;;;;6.86;54.08;102822.00;5053795;28;45365;-73
2022/01/25 08:06:10;;;;;;;;;58.00;46.00;;;;;6.88;54.39;102822.72;5053813;28;45573;-73
2022/01/25 08:08:36;;;;;;;;;62.50;47.25;;;;;6.84;54.33;102810.34;5053978;28;45839;-75
2022/01/25 08:11:03;;;;;;;;;63.50;46.25;;;;;6.93;54.65;102819.59;5052978;28;45423;-79
2022/01/25 08:13:30;;;;;;;;;55.75;44.00;;;;;6.93;54.88;102814.16;5038501;28;45970;-81
2022/01/25 08:15:55;;;;;;;;;56.50;46.00;;;;;6.97;54.09;102821.06;5040637;28;46851;-79
2022/01/25 08:18:21;;;;;;;;;61.75;44.00;;;;;6.97;55.58;102816.47;5039609;28;47198;-82
2022/01/25 08:20:47;;;;;;;;;58.75;45.50;;;;;7.02;54.42;102827.84;5038647;28;45748;-79
2022/01/25 08:23:12;;;;;;;;;55.75;42.75;;;;;7.05;55.47;102818.53;5057936;28;45445;-77
2022/01/25 08:25:39;;;;;;;;;62.25;47.25;;;;;7.11;53.32;102823.47;5049440;28;45300;-79
2022/01/25 08:28:06;;;;;;;;;22.75;5.75;;;;;7.11;53.81;102822.56;5059085;28;46430;-79
2022/01/25 08:30:31;;;;;;;;;61.25;47.25;;;;;7.16;54.17;102825.78;5054962;28;45396;-79
2022/01/25 08:32:57;;;;;;;;;61.50;46.50;;;;;7.13;53.88;102826.91;5054199;28;45429;-79
2022/01/25 08:35:23;;;;;;;;;57.50;45.25;;;;;7.15;54.26;102830.34;5059589;28;45557;-79
2022/01/25 08:37:48;;;;;;;;;58.75;45.50;;;;;7.19;53.76;102829.09;5035904;28;46836;-80
2022/01/25 08:40:14;;;;;;;;;62.50;47.75;;;;;7.24;54.43;102835.03;5038462;28;45452;-79
2022/01/25 08:42:42;;;;;;;;;58.75;46.75;;;;;7.31;53.70;102831.75;5080671;28;45672;-79
2022/01/25 08:45:08;;;;;;;;;62.50;45.75;;;;;7.33;53.80;102811.50;5090806;27;46542;-78
2022/01/25 08:47:34;;;;;;;;;62.75;48.00;;;;;7.37;54.12;102823.03;5091652;27;46125;-79
2022/01/25 08:50:00;;;;;;;;;58.25;46.75;;;;;7.38;54.15;102822.00;5093064;27;45696;-79
2022/01/25 08:52:27;;;;;;;;;60.75;47.75;;;;;7.43;52.54;102822.47;5093846;27;45666;-79
2022/01/25 08:54:52;;;;;;;;;64.00;48.50;;;;;7.41;53.07;102825.34;5091274;27;46254;-79
2022/01/25 08:57:18;;;;;;;;;60.50;46.25;;;;;7.42;53.59;102828.91;5086431;28;45425;-77
2022/01/25 08:59:44;;;;;;;;;57.75;43.25;;;;;7.43;53.82;102827.94;5081103;28;45789;-78
2022/01/25 09:02:09;;;;;;;;;59.75;46.75;;;;;7.49;52.83;102826.53;5084454;28;45559;-78
2022/01/25 09:04:34;;;;;;;;;61.75;45.75;;;;;7.53;53.58;102825.22;5080728;28;45560;-78
2022/01/25 09:07:00;;;;;;;;;59.25;45.00;;;;;7.54;52.72;102824.22;5080148;28;45469;-76
2022/01/25 09:09:25;;;;;;;;;65.25;48.00;;;;;7.51;53.47;102828.09;5082278;28;45398;-78
2022/01/25 09:11:51;;;;;;;;;52.00;44.00;;;;;7.52;54.18;102832.56;5060539;28;45865;-78
2022/01/25 09:14:16;;;;;;;;;61.00;46.25;;;;;7.60;53.46;102829.13;5075621;28;45479;-73
2022/01/25 09:16:42;;;;;;;;;57.25;43.00;;;;;7.64;52.74;102832.47;5076961;28;45331;-76
2022/01/25 09:19:08;;;;;;;;;58.00;46.00;;;;;7.65;52.69;102835.06;5056585;28;45863;-73
2022/01/25 09:21:34;;;;;;;;;61.00;44.75;;;;;7.69;53.67;102839.22;5075764;28;45390;-75
2022/01/25 09:24:01;;;;;;;;;73.75;53.00;;;;;7.74;53.67;102839.69;5077359;28;45635;-75
2022/01/25 09:26:26;;;;;;;;;62.00;44.00;;;;;7.77;53.73;102830.38;5058135;28;48641;-75
2022/01/25 09:28:53;;;;;;;;;62.25;46.00;;;;;7.84;52.35;102847.91;5074832;28;45529;-72
2022/01/25 09:31:19;;;;;;;;;64.50;47.25;;;;;7.76;53.04;102840.41;5079854;28;45480;-79
2022/01/25 09:33:45;;;;;;;;;64.00;49.50;;;;;7.74;52.15;102856.09;5077830;28;45815;-77
2022/01/25 09:36:10;;;;;;;;;59.50;45.00;;;;;7.77;52.27;102854.94;5081339;28;46024;-77
2022/01/25 09:38:36;;;;;;;;;62.25;47.75;;;;;7.74;51.92;102861.53;5076952;28;45679;-74
2022/01/25 09:41:02;;;;;;;;;62.25;47.00;;;;;7.71;52.19;102859.09;5076445;28;45708;-74
2022/01/25 09:43:28;;;;;;;;;58.50;47.00;;;;;7.74;52.20;102857.97;5095322;27;46681;-76
2022/01/25 09:45:54;;;;;;;;;63.75;46.50;;;;;7.72;52.61;102859.94;5076442;28;45718;-74
2022/01/25 09:48:20;;;;;;;;;60.25;46.00;;;;;7.75;52.64;102865.13;5095891;27;45700;-75
2022/01/25 09:50:46;;;;;;;;;60.25;45.00;;;;;7.78;52.19;102864.84;5058342;28;45400;-75
2022/01/25 09:53:12;;;;;;;;;65.50;48.50;;;;;7.77;51.32;102857.69;5078136;28;45578;-76
2022/01/25 09:55:41;;;;;;;;;66.00;50.00;;;;;7.82;52.33;102862.72;5076637;28;45478;-75
2022/01/25 09:58:08;;;;;;;;;58.50;44.50;;;;;7.81;52.10;102859.13;5058097;28;45541;-74
2022/01/25 10:00:36;;;;;;;;;60.50;44.00;;;;;7.90;51.88;102861.03;5078793;28;45434;-75
2022/01/25 10:05:37;;;;;;;;;60.25;44.75;;;;;7.97;51.14;102864.06;5067805;28;46003;-72
2022/01/25 10:08:25;;;;;;;;;59.00;44.75;;;;;7.94;51.53;102857.00;5089037;27;45583;-75
2022/01/25 10:10:58;;;;;;;;;64.75;48.75;;;;;8.02;51.07;102858.19;5075132;28;45147;-75
2022/01/25 10:13:33;;;;;;;;;58.00;45.50;;;;;8.06;51.06;102854.16;5057278;28;46761;-75
2022/01/25 10:16:01;;;;;;;;;59.00;45.25;;;;;8.08;51.63;102866.69;5074903;28;46193;-72
2022/01/25 10:18:48;;;;;;;;;60.00;47.00;;;;;8.10;51.45;102874.75;5080450;28;45415;-80
2022/01/25 10:21:24;;;;;;;;;61.75;46.75;;;;;8.10;51.09;102875.59;5062972;28;45474;-75
2022/01/25 10:24:08;;;;;;;;;61.50;47.75;;;;;8.06;50.94;102873.28;5056323;28;46197;-73
2022/01/25 10:26:40;;;;;;;;;59.00;45.75;;;;;8.10;50.89;102875.59;5076985;28;46194;-74
2022/01/25 10:29:12;;;;;;;;;60.00;44.25;;;;;8.06;50.48;102868.69;5075537;28;45701;-75
2022/01/25 10:31:40;;;;;;;;;58.00;44.50;;;;;8.13;50.92;102883.53;5048449;28;45825;-75
2022/01/25 10:34:08;;;;;;;;;60.25;45.25;;;;;8.12;50.79;102878.19;5076888;28;45726;-76
2022/01/25 10:36:39;;;;;;;;;57.00;45.00;;;;;8.18;50.13;102877.63;5059077;28;47168;-74
2022/01/25 10:39:04;;;;;;;;;56.00;43.50;;;;;8.20;50.18;102872.03;5075353;28;45469;-77
2022/01/25 10:41:31;;;;;;;;;63.25;48.00;;;;;8.24;50.23;102878.94;5075744;28;45429;-77
2022/01/25 10:43:58;;;;;;;;;57.75;45.50;;;;;8.21;50.31;102879.22;5056248;28;45739;-74
2022/01/25 10:46:27;;;;;;;;;59.50;48.00;;;;;8.26;49.93;102886.00;5074650;28;45458;-79
2022/01/25 10:49:01;;;;;;;;;57.75;45.25;;;;;8.31;49.89;102874.66;5075507;28;44784;-75
2022/01/25 10:51:30;;;;;;;;;56.75;44.00;;;;;8.39;49.80;102879.41;5075569;28;45546;-74
2022/01/25 10:54:06;;;;;;;;;55.75;44.00;;;;;8.45;50.08;102874.25;5074935;27;45468;-77
2022/01/25 10:56:45;;;;;;;;;54.50;42.50;;;;;8.53;50.20;102870.81;5077109;28;46268;-73
2022/01/25 10:59:14;;;;;;;;;64.00;47.25;;;;;8.59;50.14;102862.06;5094935;27;45536;-80
2022/01/25 11:01:49;;;;;;;;;55.75;44.50;;;;;8.55;49.59;102846.94;5083268;28;45386;-81
2022/01/25 11:04:20;;;;;;;;;61.50;46.00;;;;;8.63;49.70;102860.72;5082581;28;45954;-77
2022/01/25 11:06:54;;;;;;;;;53.00;40.50;;;;;8.71;49.69;102861.88;5074396;28;46073;-83
2022/01/25 11:09:24;;;;;;;;;59.75;45.00;;;;;8.78;49.61;102857.56;5078271;27;45424;-84
2022/01/25 11:11:54;;;;;;;;;60.25;44.25;;;;;8.87;50.42;102862.16;5076245;28;45446;-76
2022/01/25 11:17:05;;;;;;;;;65.00;47.00;;;;;8.97;48.83;102860.28;5085541;28;45335;-82
2022/01/25 11:19:31;;;;;;;;;57.50;41.50;;;;;8.94;49.32;102857.84;5060023;28;45446;-80
2022/01/25 11:22:09;;;;;;;;;62.00;45.25;;;;;8.96;48.72;102850.34;5077521;28;45790;-78
2022/01/25 11:24:42;;;;;;;;;54.50;44.25;;;;;9.05;48.60;102866.91;5062582;28;45801;-79
2022/01/25 11:27:07;;;;;;;;;64.00;47.50;;;;;9.02;48.49;102865.31;5067376;28;46819;-74
2022/01/25 11:29:40;;;;;;;;;60.75;47.75;;;;;9.03;48.98;102875.25;5073744;28;45422;-76
2022/01/25 11:32:10;;;;;;;;;55.75;42.00;;;;;9.19;49.10;102866.44;5061842;28;45817;-75
2022/01/25 11:34:38;;;;;;;;;60.50;44.50;;;;;9.23;48.26;102861.53;5058004;28;46607;-75
2022/01/25 11:37:07;;;;;;;;;55.00;43.50;;;;;9.31;47.98;102862.53;5051332;28;47083;-76
2022/01/25 11:39:34;;;;;;;;;58.75;46.00;;;;;9.41;48.21;102864.38;5040523;28;45509;-76
2022/01/25 11:42:18;;;;;;;;;54.50;40.25;;;;;9.39;48.20;102863.66;5033314;28;45767;-75
2022/01/25 11:44:56;;;;;;;;;54.25;43.00;;;;;9.41;48.21;102865.22;5049149;28;45759;-78
2022/01/25 11:47:30;;;;;;;;;56.25;45.50;;;;;9.40;48.36;102874.47;5063162;28;45418;-76
2022/01/25 11:49:59;;;;;;;;;62.00;45.00;;;;;9.47;48.29;102867.38;5053356;28;45624;-77
2022/01/25 11:52:27;;;;;;;;;62.75;47.75;;;;;9.47;47.92;102858.28;5056426;28;45808;-76
2022/01/25 11:55:15;;;;;;;;;56.50;42.50;;;;;9.43;47.64;102856.84;5053938;28;45738;-74
2022/01/25 11:57:53;;;;;;;;;59.00;44.25;;;;;9.44;47.97;102864.06;5052543;28;47005;-76
2022/01/25 12:00:36;;;;;;;;;59.50;45.75;;;;;9.35;47.75;102861.19;5049209;28;45416;-76
2022/01/25 12:03:17;;;;;;;;;60.00;46.25;;;;;9.38;47.61;102856.47;5052805;28;45459;-76
2022/01/25 12:06:06;;;;;;;;;56.25;44.50;;;;;9.24;47.89;102841.38;5057426;28;46303;-77
2022/01/25 12:08:55;;;;;;;;;57.25;46.00;;;;;9.33;48.21;102852.28;5052079;28;47491;-76
2022/01/25 12:11:32;;;;;;;;;60.50;45.50;;;;;9.28;47.86;102862.84;5055566;28;45611;-75
2022/01/25 12:14:20;;;;;;;;;57.00;44.75;;;;;9.31;48.15;102857.06;5042072;28;45423;-75
2022/01/25 12:16:51;;;;;;;;;57.75;46.00;;;;;9.34;47.83;102855.88;5044289;28;45460;-76
2022/01/25 12:19:31;;;;;;;;;57.00;43.25;;;;;9.30;47.92;102844.38;5034969;28;47186;-76
2022/01/25 12:22:05;;;;;;;;;54.50;43.00;;;;;9.43;47.84;102848.66;5050642;28;45508;-75
2022/01/25 12:24:43;;;;;;;;;58.00;41.75;;;;;9.44;47.92;102839.44;5053910;28;45862;-75
2022/01/25 12:30:11;;;;;;;;;55.25;42.00;;;;;9.41;47.95;102839.72;5031876;28;46554;-74
2022/01/25 12:32:48;;;;;;;;;55.25;42.00;;;;;9.43;47.79;102834.94;5051123;28;44997;-76
2022/01/25 12:35:19;;;;;;;;;54.75;44.00;;;;;9.39;47.79;102823.44;5079173;28;45473;-77
2022/01/25 12:40:25;;;;;;;;;60.25;44.50;;;;;9.49;47.88;102824.28;5079318;28;45433;-76
2022/01/25 12:43:08;;;;;;;;;54.75;42.75;;;;;9.42;47.93;102825.03;5078228;28;45649;-75
2022/01/25 12:45:40;;;;;;;;;51.00;40.50;;;;;9.45;47.61;102819.25;5059972;28;45458;-74
2022/01/25 12:48:48;;;;;;;;;60.25;43.75;;;;;9.48;47.75;102821.69;5048697;28;45827;-77
2022/01/25 12:51:17;;;;;;;;;63.75;44.75;;;;;9.49;47.66;102821.53;5039028;28;45679;-76
2022/01/25 12:53:44;;;;;;;;;55.75;43.00;;;;;9.49;47.69;102812.44;5041900;28;45489;-74
2022/01/25 12:56:18;;;;;;;;;56.00;43.25;;;;;9.49;47.92;102807.84;5067572;28;45703;-75
2022/01/25 12:58:47;;;;;;;;;58.25;42.00;;;;;9.54;47.67;102810.13;5080243;28;45555;-76
2022/01/25 13:01:18;;;;;;;;;58.25;44.00;;;;;9.55;47.71;102817.34;5077967;28;45474;-75
2022/01/25 13:03:53;;;;;;;;;59.75;45.25;;;;;9.48;47.98;102813.47;5077719;28;45521;-78
2022/01/25 13:06:21;;;;;;;;;61.00;44.25;;;;;9.54;47.29;102813.72;5081986;28;45489;-76
2022/01/25 13:08:57;;;;;;;;;55.75;42.75;;;;;9.54;48.18;102812.88;5077289;28;45561;-76